Time;durP1;ratioP1;P1;durP2;ratioP2;P2;SDS_P1;SDS_P2;PMS_P1;PMS_P2;Temp;Humidity;BMP_temperature;BMP_pressure;BME280_temperature;BME280_humidity;BME280_pressure;Samples;Min_cycle;Max_cycle;Signal;HPM_P1;HPM_P2
2023/05/17 00:00:01;;;;;;;12.20;7.70;;;;;;;9.76;96.45;100675.50;105785;1253;83256;-47
2023/05/17 00:02:51;;;;;;;11.70;7.70;;;;;;;9.75;96.43;100679.21;105734;1250;72761;-47
2023/05/17 00:05:20;;;;;;;9.20;7.50;;;;;;;9.73;96.43;100679.47;105723;1251;69985;-47
2023/05/17 00:07:48;;;;;;;11.90;7.70;;;;;;;9.71;96.56;100683.68;105835;1250;69983;-48
2023/05/17 00:10:17;;;;;;;11.40;8.60;;;;;;;9.70;96.48;100684.58;105823;1251;74699;-47
2023/05/17 00:12:45;;;;;;;12.00;7.40;;;;;;;9.69;96.49;100683.40;105769;1251;83545;-47
2023/05/17 00:15:13;;;;;;;10.50;7.40;;;;;;;9.68;96.71;100686.56;105815;1253;72226;-51
2023/05/17 00:17:42;;;;;;;13.10;8.50;;;;;;;9.66;96.78;100690.80;105832;1253;69915;-48
2023/05/17 00:20:11;;;;;;;13.40;7.80;;;;;;;9.67;96.73;100685.73;105766;1253;69924;-49
2023/05/17 00:22:39;;;;;;;13.40;7.90;;;;;;;9.66;96.72;100690.45;105828;1250;75195;-47
2023/05/17 00:25:08;;;;;;;10.10;7.70;;;;;;;9.66;96.60;100688.55;105898;1253;83298;-46
2023/05/17 00:27:36;;;;;;;12.50;7.80;;;;;;;9.64;96.62;100691.38;105842;1250;73249;-47
2023/05/17 00:30:06;;;;;;;11.70;8.40;;;;;;;9.63;96.60;100689.67;105726;1254;69906;-48
2023/05/17 00:32:37;;;;;;;17.60;8.50;;;;;;;9.62;96.68;100688.83;105827;1253;69985;-47
2023/05/17 00:35:05;;;;;;;10.90;7.90;;;;;;;9.60;96.48;100689.94;105821;1251;74900;-49
2023/05/17 00:37:34;;;;;;;13.80;7.50;;;;;;;9.58;96.39;100691.89;105723;1253;83375;-48
2023/05/17 00:40:05;;;;;;;10.30;5.80;;;;;;;9.56;96.06;100690.56;105831;1250;74175;-47
2023/05/17 00:42:33;;;;;;;12.80;5.90;;;;;;;9.54;95.84;100690.64;105805;1251;69902;-47
2023/05/17 00:45:01;;;;;;;12.60;5.90;;;;;;;9.54;95.73;100698.50;105787;1251;69981;-46
2023/05/17 00:47:29;;;;;;;8.40;5.40;;;;;;;9.53;95.57;100699.38;105773;1250;74777;-46
2023/05/17 00:49:58;;;;;;;8.40;5.10;;;;;;;9.52;95.10;100698.35;105714;1253;83227;-47
2023/05/17 00:52:26;;;;;;;9.80;5.30;;;;;;;9.51;94.88;100697.67;105763;1253;73339;-46
2023/05/17 00:54:55;;;;;;;8.80;4.80;;;;;;;9.52;94.96;100698.38;105752;1253;70069;-46
2023/05/17 00:57:23;;;;;;;11.70;5.00;;;;;;;9.51;94.70;100698.02;105746;1251;69985;-47
2023/05/17 00:59:52;;;;;;;7.50;5.00;;;;;;;9.48;94.44;100703.35;105836;1250;74624;-47
2023/05/17 01:02:21;;;;;;;10.20;4.70;;;;;;;9.47;94.28;100705.14;105680;1256;83109;-47
2023/05/17 01:04:49;;;;;;;9.50;4.80;;;;;;;9.44;94.31;100708.35;105885;1250;72822;-47
2023/05/17 01:07:18;;;;;;;9.80;4.60;;;;;;;9.41;94.00;100706.69;105707;1254;70005;-47
2023/05/17 01:09:47;;;;;;;8.50;4.20;;;;;;;9.40;93.97;100708.30;105836;1250;69873;-47
2023/05/17 01:12:40;;;;;;;7.00;4.20;;;;;;;9.37;93.42;100707.84;105825;1250;73897;-47
2023/05/17 01:15:36;;;;;;;8.10;4.30;;;;;;;9.33;93.35;100707.77;105764;1253;83541;-47
2023/05/17 01:18:17;;;;;;;6.60;4.10;;;;;;;9.30;93.37;100710.45;105771;1251;72800;-47
2023/05/17 01:20:48;;;;;;;8.30;3.90;;;;;;;9.27;93.14;100710.19;105613;1251;70006;-46
2023/05/17 01:23:34;;;;;;;9.50;4.20;;;;;;;9.24;92.83;100710.47;105684;1256;69929;-47
2023/05/17 01:26:17;;;;;;;6.90;4.50;;;;;;;9.20;92.81;100710.90;105754;1250;74885;-46
2023/05/17 01:28:48;;;;;;;8.10;3.80;;;;;;;9.17;92.66;100707.70;105781;1253;82489;-48
2023/05/17 01:31:17;;;;;;;7.10;3.50;;;;;;;9.12;92.51;100707.45;105747;1250;73770;-47
2023/05/17 01:33:46;;;;;;;5.40;3.80;;;;;;;9.09;92.43;100709.79;105811;1251;69983;-47
2023/05/17 01:36:14;;;;;;;7.20;4.00;;;;;;;9.07;92.42;100709.68;105678;1250;69954;-46
2023/05/17 01:38:43;;;;;;;6.10;3.80;;;;;;;9.05;92.21;100712.52;105817;1253;74869;-47
2023/05/17 01:41:36;;;;;;;6.70;4.00;;;;;;;9.03;92.12;100714.32;105781;1251;83137;-46
2023/05/17 01:44:04;;;;;;;8.10;3.70;;;;;;;8.99;91.95;100710.40;105755;1251;73800;-47
2023/05/17 01:46:56;;;;;;;9.10;3.70;;;;;;;8.98;92.00;100712.54;105733;1253;70088;-47
2023/05/17 01:49:29;;;;;;;6.00;3.40;;;;;;;8.94;91.89;100718.36;105759;1253;70021;-47
2023/05/17 01:52:30;;;;;;;10.10;4.20;;;;;;;8.91;91.65;100722.28;105712;1251;74031;-45
2023/05/17 01:55:13;;;;;;;8.20;3.80;;;;;;;8.88;91.54;100726.20;105798;1253;83085;-47
2023/05/17 01:57:43;;;;;;;11.20;3.50;;;;;;;8.85;91.64;100729.92;105692;1254;73685;-47
2023/05/17 02:00:12;;;;;;;6.60;3.70;;;;;;;8.82;91.26;100734.72;105663;1249;69986;-46
2023/05/17 02:02:46;;;;;;;8.10;4.00;;;;;;;8.78;91.33;100741.77;105691;1254;70126;-48
2023/05/17 02:05:14;;;;;;;6.00;3.60;;;;;;;8.77;91.52;100751.05;105693;1251;75021;-47
2023/05/17 02:07:42;;;;;;;8.80;3.80;;;;;;;8.73;91.19;100753.41;105865;1253;83371;-48
2023/05/17 02:10:11;;;;;;;5.30;3.00;;;;;;;8.69;91.05;100754.34;105773;1250;73409;-47
2023/05/17 02:12:42;;;;;;;7.60;3.20;;;;;;;8.67;91.10;100760.68;105742;1253;70005;-47
2023/05/17 02:15:12;;;;;;;7.40;3.30;;;;;;;8.64;91.20;100766.33;105641;1251;70383;-47
2023/05/17 02:17:43;;;;;;;14.00;4.90;;;;;;;8.61;91.07;100764.81;105796;1251;74958;-47
2023/05/17 02:20:12;;;;;;;7.90;3.60;;;;;;;8.59;91.14;100768.70;105816;1253;83361;-47
2023/05/17 02:22:40;;;;;;;7.50;3.30;;;;;;;8.57;91.11;100772.59;105604;1253;74095;-47
2023/05/17 02:25:09;;;;;;;5.50;3.10;;;;;;;8.55;91.08;100776.29;105690;1251;69983;-46
2023/05/17 02:27:39;;;;;;;6.60;3.20;;;;;;;8.52;90.85;100774.28;105725;1251;69900;-47
2023/05/17 02:30:08;;;;;;;9.40;3.20;;;;;;;8.48;90.57;100778.02;105733;1251;73972;-46
2023/05/17 02:32:37;;;;;;;6.80;2.80;;;;;;;8.44;90.47;100773.04;105829;1250;81507;-47
2023/05/17 02:35:08;;;;;;;8.10;3.30;;;;;;;8.40;90.24;100773.31;105762;1251;72813;-47
2023/05/17 02:37:36;;;;;;;9.20;3.10;;;;;;;8.37;90.05;100766.73;105813;1250;69980;-46
2023/05/17 02:40:08;;;;;;;6.00;2.70;;;;;;;8.34;90.19;100764.71;105816;1253;69875;-48
2023/05/17 02:42:37;;;;;;;10.90;3.40;;;;;;;8.30;90.02;100770.19;105754;1251;73569;-47
2023/05/17 02:45:06;;;;;;;8.80;3.40;;;;;;;8.24;89.64;100770.83;105819;1251;82282;-47
2023/05/17 02:47:34;;;;;;;5.80;2.60;;;;;;;8.20;89.64;100778.41;105694;1250;73896;-47
2023/05/17 02:50:03;;;;;;;6.60;2.20;;;;;;;8.16;89.48;100777.98;105791;1251;70075;-47
2023/05/17 02:52:32;;;;;;;6.00;2.40;;;;;;;8.10;89.42;100777.90;105677;1254;69982;-46
2023/05/17 02:55:01;;;;;;;8.70;2.80;;;;;;;8.08;89.32;100772.75;105774;1253;73151;-46
2023/05/17 02:57:29;;;;;;;6.90;2.70;;;;;;;8.04;89.29;100768.98;105736;1251;82466;-45
2023/05/17 02:59:57;;;;;;;7.80;2.20;;;;;;;8.00;89.29;100776.04;105682;1251;72807;-46
2023/05/17 03:02:27;;;;;;;5.80;2.70;;;;;;;7.96;89.17;100782.39;105797;1253;69979;-46
2023/05/17 03:04:56;;;;;;;7.80;2.90;;;;;;;7.91;89.00;100782.13;105770;1250;70082;-46
2023/05/17 03:07:24;;;;;;;5.60;1.90;;;;;;;7.88;89.38;100779.77;105745;1251;75019;-45
2023/05/17 03:09:53;;;;;;;7.90;2.40;;;;;;;7.84;89.20;100781.56;105768;1253;82587;-45
2023/05/17 03:12:23;;;;;;;4.90;2.10;;;;;;;7.81;89.12;100782.34;105727;1251;72749;-48
2023/05/17 03:26:27;;;;;;;7.30;2.60;;;;;;;8.00;87.89;100795.00;103228;1286;613655;-60
2023/05/17 03:28:55;;;;;;;3.50;1.90;;;;;;;7.99;87.65;100795.71;104709;1264;117126;-59
2023/05/17 03:31:24;;;;;;;6.80;1.90;;;;;;;7.96;87.59;100805.71;105130;1263;69121;-62
2023/05/17 03:33:53;;;;;;;5.40;2.00;;;;;;;7.92;87.55;100810.14;105163;1263;71578;-62
2023/05/17 03:36:22;;;;;;;6.50;2.00;;;;;;;7.85;87.39;100815.15;105138;1260;81656;-64
2023/05/17 03:38:50;;;;;;;7.30;2.10;;;;;;;7.77;87.64;100820.16;105048;1261;73490;-64
2023/05/17 03:41:19;;;;;;;6.30;2.10;;;;;;;7.72;87.72;100821.31;105141;1263;69105;-62
2023/05/17 03:43:48;;;;;;;6.70;2.00;;;;;;;7.64;87.50;100821.98;105143;1260;69090;-63
2023/05/17 03:46:17;;;;;;;6.10;2.00;;;;;;;7.57;87.54;100825.22;105123;1261;71104;-62
2023/05/17 03:48:47;;;;;;;5.80;1.90;;;;;;;7.53;87.81;100828.59;105084;1261;84265;-62
2023/05/17 03:51:16;;;;;;;7.30;1.40;;;;;;;7.51;87.84;100831.92;105106;1261;73952;-62
2023/05/17 03:53:45;;;;;;;4.60;1.90;;;;;;;7.49;87.87;100835.45;105097;1263;69211;-62
2023/05/17 03:56:14;;;;;;;6.20;2.00;;;;;;;7.47;87.59;100831.85;105045;1263;69212;-62
2023/05/17 03:58:43;;;;;;;5.10;2.00;;;;;;;7.45;87.61;100831.17;105171;1261;73205;-63
2023/05/17 04:01:11;;;;;;;3.80;1.30;;;;;;;7.44;87.37;100836.23;105039;1263;83299;-64
2023/05/17 04:03:39;;;;;;;4.90;1.70;;;;;;;7.45;87.54;100840.21;105088;1259;73703;-63
2023/05/17 04:06:09;;;;;;;5.00;1.50;;;;;;;7.45;87.35;100841.24;105081;1264;69208;-63
2023/05/17 04:08:38;;;;;;;8.50;1.50;;;;;;;7.46;87.20;100844.02;105108;1262;69074;-64
2023/05/17 04:11:11;;;;;;;10.40;2.00;;;;;;;7.47;87.29;100845.40;105099;1263;73152;-64
2023/05/17 04:13:41;;;;;;;6.10;1.80;;;;;;;7.49;87.44;100850.23;105024;1261;83566;-64
2023/05/17 04:16:10;;;;;;;5.10;1.50;;;;;;;7.52;87.46;100851.23;105103;1264;73602;-64
2023/05/17 04:18:40;;;;;;;7.50;2.00;;;;;;;7.54;87.62;100859.02;105087;1260;69032;-64
2023/05/17 04:21:09;;;;;;;3.60;1.50;;;;;;;7.55;87.29;100857.41;105072;1259;69074;-62
2023/05/17 04:23:39;;;;;;;5.70;2.00;;;;;;;7.57;87.47;100854.95;105103;1263;72313;-61
2023/05/17 04:26:09;;;;;;;8.70;2.60;;;;;;;7.58;87.28;100855.46;105117;1261;83680;-61
2023/05/17 04:28:40;;;;;;;5.60;2.00;;;;;;;7.59;87.38;100853.88;105055;1263;73206;-60
2023/05/17 04:31:09;;;;;;;3.80;1.60;;;;;;;7.62;87.16;100860.45;105061;1266;69264;-60
2023/05/17 04:33:38;;;;;;;7.00;1.50;;;;;;;7.66;87.53;100859.51;105081;1260;69111;-61
2023/05/17 04:36:07;;;;;;;5.20;1.90;;;;;;;7.70;87.30;100861.52;104951;1261;73430;-61
2023/05/17 04:38:35;;;;;;;7.20;1.60;;;;;;;7.73;87.03;100864.78;105071;1261;81773;-61
2023/05/17 04:41:06;;;;;;;5.90;1.50;;;;;;;7.74;86.68;100867.38;104914;1266;73690;-61
2023/05/17 04:43:37;;;;;;;5.60;1.70;;;;;;;7.76;86.87;100869.23;105025;1266;69288;-61
2023/05/17 04:46:08;;;;;;;5.80;1.90;;;;;;;7.79;86.60;100868.50;105212;1260;69223;-61
2023/05/17 04:48:37;;;;;;;5.40;1.50;;;;;;;7.80;86.33;100870.91;105703;1259;72254;-60
2023/05/17 04:51:06;;;;;;;4.70;1.40;;;;;;;7.81;86.34;100875.05;105348;1257;83373;-61
2023/05/17 04:53:35;;;;;;;6.50;1.70;;;;;;;7.84;86.20;100876.05;105447;1260;73394;-61
2023/05/17 04:56:07;;;;;;;4.80;1.40;;;;;;;7.88;86.04;100879.48;105314;1257;69141;-60
2023/05/17 04:58:36;;;;;;;3.90;1.60;;;;;;;7.89;85.66;100881.34;105185;1260;69201;-60
2023/05/17 05:01:05;;;;;;;6.80;1.30;;;;;;;7.90;85.51;100882.56;105301;1257;72816;-61
2023/05/17 05:03:33;;;;;;;5.60;1.60;;;;;;;7.92;85.69;100880.42;105300;1258;82481;-60
2023/05/17 05:06:03;;;;;;;5.00;1.30;;;;;;;7.98;85.76;100886.24;105387;1260;73838;-61
2023/05/17 05:08:32;;;;;;;5.80;2.00;;;;;;;8.01;85.46;100887.91;105468;1261;69040;-60
2023/05/17 05:11:00;;;;;;;5.10;1.20;;;;;;;8.04;85.43;100895.34;105316;1260;69059;-61
2023/05/17 05:13:30;;;;;;;5.80;1.50;;;;;;;8.07;85.41;100894.59;105388;1258;73173;-61
2023/05/17 05:15:59;;;;;;;6.20;1.60;;;;;;;8.12;85.42;100897.27;105277;1260;84069;-61
2023/05/17 05:18:28;;;;;;;7.10;2.00;;;;;;;8.19;85.05;100903.24;105356;1257;72744;-61
2023/05/17 05:20:58;;;;;;;8.70;2.10;;;;;;;8.25;85.28;100906.78;105279;1261;69132;-61
2023/05/17 05:23:27;;;;;;;7.10;1.60;;;;;;;8.32;85.32;100911.36;105186;1257;69745;-61
2023/05/17 05:25:55;;;;;;;4.80;1.70;;;;;;;8.38;85.06;100911.08;105407;1257;71987;-61
2023/05/17 05:28:24;;;;;;;6.00;1.60;;;;;;;8.46;85.43;100910.75;105427;1260;83268;-60
2023/05/17 05:30:58;;;;;;;4.50;1.70;;;;;;;8.53;85.21;100914.29;105317;1260;73711;-61
2023/05/17 05:33:27;;;;;;;10.20;2.10;;;;;;;8.57;84.96;100922.38;105262;1261;69293;-61
2023/05/17 05:35:56;;;;;;;5.20;2.00;;;;;;;8.62;84.93;100922.45;105301;1263;69179;-61
2023/05/17 05:38:27;;;;;;;9.30;2.30;;;;;;;8.65;84.81;100925.54;105255;1260;73011;-61
2023/05/17 05:40:56;;;;;;;9.20;2.30;;;;;;;8.68;84.57;100921.47;105281;1260;83319;-61
2023/05/17 05:43:24;;;;;;;7.30;2.20;;;;;;;8.72;84.73;100925.55;105199;1257;73400;-61
2023/05/17 05:45:52;;;;;;;6.80;2.30;;;;;;;8.76;84.77;100923.57;105233;1257;69208;-61
2023/05/17 05:48:21;;;;;;;6.50;1.80;;;;;;;8.82;84.82;100920.98;105300;1258;69109;-61
2023/05/17 05:50:49;;;;;;;8.80;2.30;;;;;;;8.89;85.04;100919.96;105232;1258;73226;-61
2023/05/17 05:53:18;;;;;;;5.90;2.00;;;;;;;8.95;84.95;100921.40;105263;1263;83347;-62
2023/05/17 05:55:55;;;;;;;8.20;2.10;;;;;;;9.02;84.63;100924.23;105151;1260;73705;-62
2023/05/17 05:58:23;;;;;;;6.80;2.50;;;;;;;9.06;84.69;100920.46;105274;1260;69199;-62
2023/05/17 06:00:52;;;;;;;7.60;2.50;;;;;;;9.09;84.48;100918.30;105487;1259;69158;-63
2023/05/17 06:03:20;;;;;;;8.00;2.60;;;;;;;9.15;84.51;100911.36;105298;1260;72623;-64
2023/05/17 06:05:49;;;;;;;7.40;2.80;;;;;;;9.21;84.28;100911.39;105472;1260;83156;-63
2023/05/17 06:08:17;;;;;;;12.00;2.70;;;;;;;9.29;84.45;100912.44;105329;1260;73423;-63
2023/05/17 06:10:46;;;;;;;6.00;2.30;;;;;;;9.39;84.61;100913.06;105399;1260;69189;-63
2023/05/17 06:13:15;;;;;;;5.90;2.30;;;;;;;9.49;84.20;100918.41;105357;1260;69080;-63
2023/05/17 06:15:43;;;;;;;7.20;2.40;;;;;;;9.61;84.38;100918.66;105459;1257;73170;-63
2023/05/17 06:18:12;;;;;;;7.80;2.40;;;;;;;9.71;84.50;100920.48;105295;1260;83891;-61
2023/05/17 06:20:41;;;;;;;9.90;2.60;;;;;;;9.85;84.26;100921.87;105523;1260;73736;-63
2023/05/17 06:23:09;;;;;;;8.10;2.60;;;;;;;9.94;84.07;100917.29;105356;1260;69332;-63
2023/05/17 06:25:38;;;;;;;7.70;2.80;;;;;;;10.04;83.97;100923.30;105411;1259;69105;-63
2023/05/17 06:28:08;;;;;;;6.00;2.60;;;;;;;10.17;83.91;100926.82;105562;1257;73153;-64
2023/05/17 06:30:36;;;;;;;8.20;2.50;;;;;;;10.22;83.04;100934.16;105436;1260;83739;-64
2023/05/17 06:33:04;;;;;;;12.30;3.60;;;;;;;10.28;82.89;100935.95;105584;1256;73663;-63
2023/05/17 06:35:34;;;;;;;5.50;2.20;;;;;;;10.32;82.56;100942.70;105349;1255;69200;-63
2023/05/17 06:38:22;;;;;;;5.50;2.40;;;;;;;10.34;82.34;100947.52;105355;1267;69070;-64
2023/05/17 06:40:54;;;;;;;8.10;2.80;;;;;;;10.39;82.16;100944.75;105484;1258;72939;-62
2023/05/17 06:43:23;;;;;;;6.00;2.50;;;;;;;10.43;81.92;100950.42;105496;1258;83905;-62
2023/05/17 06:45:51;;;;;;;7.60;2.50;;;;;;;10.48;81.95;100955.69;105451;1255;73694;-62
2023/05/17 06:48:20;;;;;;;7.20;2.60;;;;;;;10.56;81.85;100964.73;105440;1258;69183;-61
2023/05/17 06:50:48;;;;;;;11.90;2.50;;;;;;;10.66;82.14;100968.10;105368;1259;69064;-62
2023/05/17 06:53:17;;;;;;;4.70;2.30;;;;;;;10.78;81.73;100968.84;105358;1260;71946;-61
2023/05/17 06:55:45;;;;;;;10.50;2.70;;;;;;;10.84;81.33;100974.05;105270;1259;83800;-62
2023/05/17 06:58:13;;;;;;;10.00;3.30;;;;;;;10.91;81.42;100974.23;105283;1260;72735;-60
2023/05/17 07:00:42;;;;;;;10.00;3.10;;;;;;;10.86;80.58;100977.67;105379;1260;69080;-62
2023/05/17 07:03:10;;;;;;;8.40;2.90;;;;;;;10.89;80.74;100977.41;105368;1261;69176;-62
2023/05/17 07:05:39;;;;;;;8.10;2.70;;;;;;;10.93;80.75;100984.46;105345;1259;73428;-62
2023/05/17 07:08:07;;;;;;;7.70;2.20;;;;;;;11.02;80.68;100987.02;105794;1256;83368;-61
2023/05/17 07:10:36;;;;;;;7.30;2.60;;;;;;;11.08;80.43;100988.06;105630;1256;73032;-62
2023/05/17 07:13:04;;;;;;;9.30;2.80;;;;;;;11.15;80.39;100988.70;105667;1256;69118;-63
2023/05/17 07:15:32;;;;;;;8.70;3.30;;;;;;;11.23;80.19;100991.80;105938;1256;69048;-63
2023/05/17 07:18:01;;;;;;;6.40;2.70;;;;;;;11.26;79.72;100997.14;105734;1260;73126;-63
2023/05/17 07:20:30;;;;;;;9.80;3.50;;;;;;;11.22;79.19;100994.11;105766;1264;84975;-63
2023/05/17 07:22:59;;;;;;;8.70;2.50;;;;;;;11.25;79.36;100997.34;105758;1254;73325;-63
2023/05/17 07:25:28;;;;;;;11.20;2.90;;;;;;;11.29;79.10;100999.50;105645;1251;69149;-63
2023/05/17 07:27:57;;;;;;;9.00;2.80;;;;;;;11.32;78.97;101000.27;105781;1257;69185;-64
2023/05/17 07:30:25;;;;;;;11.70;2.90;;;;;;;11.36;78.76;100997.88;105815;1256;73696;-60
2023/05/17 07:32:53;;;;;;;8.60;3.10;;;;;;;11.42;78.86;101000.69;105784;1257;83086;-61
2023/05/17 07:35:22;;;;;;;8.20;3.10;;;;;;;11.44;78.54;100998.00;105785;1257;73399;-63
2023/05/17 07:37:51;;;;;;;8.20;2.80;;;;;;;11.46;78.44;101000.89;105705;1251;69398;-63
2023/05/17 07:40:20;;;;;;;7.70;3.00;;;;;;;11.49;78.45;100996.60;105677;1257;69185;-63
2023/05/17 07:42:49;;;;;;;8.90;3.40;;;;;;;11.56;78.64;100990.61;105739;1257;72985;-64
2023/05/17 07:45:18;;;;;;;12.10;3.40;;;;;;;11.64;78.42;100987.39;105683;1258;82359;-63
2023/05/17 07:47:46;;;;;;;7.40;3.00;;;;;;;11.70;78.45;100988.23;105828;1264;73680;-64
2023/05/17 07:50:15;;;;;;;7.00;3.00;;;;;;;11.79;78.53;100984.79;105705;1256;69255;-63
2023/05/17 07:52:43;;;;;;;9.30;3.70;;;;;;;11.87;78.00;100984.04;105679;1255;69192;-63
2023/05/17 07:55:12;;;;;;;11.40;3.60;;;;;;;11.90;77.88;100976.25;105671;1257;73947;-62
2023/05/17 07:57:44;;;;;;;9.80;3.20;;;;;;;11.95;78.01;100973.58;105778;1251;82266;-63
2023/05/17 08:00:13;;;;;;;9.40;3.50;;;;;;;12.07;77.98;100976.73;105715;1255;73099;-63
2023/05/17 08:02:41;;;;;;;12.70;4.00;;;;;;;12.17;77.87;100979.73;105786;1257;69237;-63
2023/05/17 08:05:10;;;;;;;9.40;3.60;;;;;;;12.20;77.11;100981.19;105793;1256;69256;-63
2023/05/17 08:07:38;;;;;;;9.40;3.30;;;;;;;12.11;76.55;100981.11;105673;1251;73950;-63
2023/05/17 08:10:07;;;;;;;11.00;3.40;;;;;;;12.14;76.91;100984.87;105767;1257;83082;-63
2023/05/17 08:12:35;;;;;;;7.80;3.30;;;;;;;12.23;76.94;100991.06;105825;1257;72756;-63
2023/05/17 08:15:05;;;;;;;9.90;4.00;;;;;;;12.23;76.48;101000.17;105763;1257;69271;-63
2023/05/17 08:17:33;;;;;;;9.20;3.50;;;;;;;12.20;76.29;100995.87;105842;1252;69160;-64
2023/05/17 08:20:01;;;;;;;9.90;3.80;;;;;;;12.28;76.77;100992.11;105672;1256;72435;-64
2023/05/17 08:22:30;;;;;;;12.30;4.00;;;;;;;12.42;76.90;100998.13;105665;1256;83366;-64
2023/05/17 08:24:58;;;;;;;11.60;3.80;;;;;;;12.43;76.28;101001.06;105651;1257;73399;-63
2023/05/17 08:27:29;;;;;;;10.00;3.10;;;;;;;12.45;76.26;101003.09;105599;1257;69125;-62
2023/05/17 08:29:58;;;;;;;11.40;3.80;;;;;;;12.53;76.13;100999.30;105668;1257;69234;-62
2023/05/17 08:32:27;;;;;;;8.30;3.50;;;;;;;12.59;75.99;101002.58;105663;1257;73876;-62
2023/05/17 08:34:57;;;;;;;12.50;4.10;;;;;;;12.63;75.67;101003.51;105711;1255;83347;-62
2023/05/17 08:37:25;;;;;;;10.70;3.90;;;;;;;12.65;75.76;101002.20;105680;1257;72715;-62
2023/05/17 08:39:53;;;;;;;7.40;3.10;;;;;;;12.71;75.57;101000.91;105714;1257;69163;-62
2023/05/17 08:42:25;;;;;;;9.40;3.20;;;;;;;12.76;75.53;101005.48;105680;1256;69124;-62
2023/05/17 08:44:54;;;;;;;8.00;3.30;;;;;;;12.83;75.56;101002.77;105706;1251;74018;-62
2023/05/17 08:47:28;;;;;;;9.30;3.10;;;;;;;12.89;75.33;101002.37;105659;1251;83397;-62
2023/05/17 08:50:03;;;;;;;11.50;3.80;;;;;;;12.93;74.78;101003.61;105590;1256;72104;-62
2023/05/17 08:52:34;;;;;;;6.10;2.90;;;;;;;12.90;74.17;101004.11;105666;1251;69055;-62
2023/05/17 08:55:04;;;;;;;7.70;2.80;;;;;;;12.92;74.04;101007.02;105673;1257;69163;-62
2023/05/17 08:57:37;;;;;;;10.80;2.60;;;;;;;12.91;73.91;101008.77;105609;1257;74058;-63
2023/05/17 09:00:15;;;;;;;8.50;2.90;;;;;;;12.97;73.91;101013.66;105590;1254;82370;-64
2023/05/17 09:02:43;;;;;;;8.20;2.50;;;;;;;12.99;73.40;101011.83;105618;1251;73412;-63
2023/05/17 09:05:15;;;;;;;7.70;2.30;;;;;;;13.04;73.46;101007.61;105625;1255;69182;-63
2023/05/17 09:07:43;;;;;;;8.40;2.70;;;;;;;13.09;73.07;101010.23;105528;1256;69185;-63
2023/05/17 09:10:12;;;;;;;12.40;3.70;;;;;;;13.14;73.21;101007.75;105609;1252;74145;-62
2023/05/17 09:12:41;;;;;;;11.40;3.00;;;;;;;13.22;73.23;101009.73;105709;1251;83654;-61
2023/05/17 09:15:19;;;;;;;8.80;3.20;;;;;;;13.23;72.74;101010.60;105638;1251;73832;-62
2023/05/17 09:17:56;;;;;;;8.30;2.90;;;;;;;13.20;72.59;101013.51;105578;1251;69080;-62
2023/05/17 09:20:33;;;;;;;11.50;3.90;;;;;;;13.21;72.79;101012.75;105720;1255;69192;-62
2023/05/17 09:23:03;;;;;;;15.00;3.80;;;;;;;13.23;72.56;101011.83;105649;1256;74646;-63
2023/05/17 09:25:32;;;;;;;9.00;3.50;;;;;;;13.24;72.48;101017.90;105668;1257;83342;-63
2023/05/17 09:28:06;;;;;;;10.80;2.80;;;;;;;13.26;72.51;101018.18;105639;1251;72732;-62
2023/05/17 09:30:38;;;;;;;7.30;2.90;;;;;;;13.31;72.47;101015.89;105613;1256;69272;-62
2023/05/17 09:33:08;;;;;;;7.80;2.60;;;;;;;13.32;72.03;101013.44;105658;1251;69183;-63
2023/05/17 09:35:37;;;;;;;12.10;3.40;;;;;;;13.33;72.24;101012.70;105706;1251;74101;-63
2023/05/17 09:38:08;;;;;;;8.80;3.20;;;;;;;13.37;72.18;101013.20;105688;1256;83501;-63
2023/05/17 09:40:42;;;;;;;;;;;;;;;13.48;72.66;101017.54;105693;1251;74142;-63
2023/05/17 09:43:12;;;;;;;8.10;3.00;;;;;;;13.54;72.34;101014.13;105657;1256;69195;-63
2023/05/17 09:45:40;;;;;;;8.40;2.30;;;;;;;13.57;71.91;101016.80;105668;1251;69148;-63
2023/05/17 09:48:13;;;;;;;8.30;2.60;;;;;;;13.59;71.69;101017.27;105709;1251;74218;-63
2023/05/17 09:50:47;;;;;;;10.40;3.10;;;;;;;13.58;71.45;101016.77;105688;1256;83371;-63
2023/05/17 09:53:25;;;;;;;5.90;2.50;;;;;;;13.54;71.60;101016.23;105646;1257;72768;-63
2023/05/17 09:55:57;;;;;;;7.90;2.70;;;;;;;13.39;71.16;101020.14;105651;1251;69150;-63
2023/05/17 09:58:27;;;;;;;6.00;2.30;;;;;;;13.27;70.98;101021.84;105639;1256;69102;-63
2023/05/17 10:01:00;;;;;;;8.90;2.80;;;;;;;13.18;70.99;101024.29;105677;1255;73082;-64
2023/05/17 10:03:31;;;;;;;7.70;2.50;;;;;;;13.12;71.40;101027.28;105613;1251;83215;-63
2023/05/17 10:06:05;;;;;;;7.40;3.10;;;;;;;13.08;71.59;101027.61;105660;1256;73359;-63
2023/05/17 10:08:34;;;;;;;8.10;2.70;;;;;;;13.08;71.63;101023.25;105594;1257;69134;-61
2023/05/17 10:11:06;;;;;;;8.00;2.90;;;;;;;13.11;71.95;101020.66;105603;1254;69109;-62
2023/05/17 10:13:43;;;;;;;10.60;2.80;;;;;;;13.19;71.79;101020.58;105666;1255;74063;-61
2023/05/17 10:16:12;;;;;;;11.40;3.50;;;;;;;13.22;71.75;101017.45;105673;1251;81873;-61
2023/05/17 10:18:40;;;;;;;9.80;3.40;;;;;;;13.18;71.48;101020.56;105620;1256;73828;-61
2023/05/17 10:21:09;;;;;;;7.50;3.10;;;;;;;13.15;71.59;101022.46;105662;1251;69176;-62
2023/05/17 10:23:38;;;;;;;6.30;2.60;;;;;;;13.13;71.45;101021.30;105594;1251;69126;-62
2023/05/17 10:26:07;;;;;;;12.70;3.40;;;;;;;13.09;71.36;101016.36;105719;1256;74100;-61
2023/05/17 10:28:36;;;;;;;6.70;2.30;;;;;;;13.06;71.17;101016.46;105654;1257;83461;-62
2023/05/17 10:31:05;;;;;;;11.50;3.10;;;;;;;13.07;71.06;101016.42;105700;1257;72702;-61
2023/05/17 10:33:34;;;;;;;6.10;2.70;;;;;;;13.15;71.37;101014.21;105588;1251;69673;-63
2023/05/17 10:36:05;;;;;;;9.10;2.80;;;;;;;13.33;71.36;101017.41;105638;1251;69162;-61
2023/05/17 10:38:33;;;;;;;8.40;2.90;;;;;;;13.51;71.40;101025.30;105662;1251;73080;-61
2023/05/17 10:41:14;;;;;;;7.00;2.60;;;;;;;13.70;71.06;101028.96;105638;1251;83176;-62
2023/05/17 10:43:42;;;;;;;8.40;2.50;;;;;;;13.86;71.18;101023.91;105654;1256;73845;-62
2023/05/17 10:46:15;;;;;;;4.80;3.20;;;;;;;13.89;70.24;101019.94;105585;1251;69078;-62
2023/05/17 10:48:44;;;;;;;5.10;2.10;;;;;;;13.89;69.78;101023.46;105596;1252;69188;-63
2023/05/17 10:51:12;;;;;;;6.00;2.30;;;;;;;13.86;69.50;101021.46;105645;1251;73107;-61
2023/05/17 10:54:02;;;;;;;4.70;2.40;;;;;;;13.79;68.97;101025.94;105750;1254;83290;-62
2023/05/17 10:56:32;;;;;;;8.70;3.10;;;;;;;13.74;68.89;101029.88;105734;1256;73403;-61
2023/05/17 10:59:25;;;;;;;11.40;4.20;;;;;;;13.75;69.09;101031.56;105780;1253;69198;-62
2023/05/17 11:01:59;;;;;;;8.40;3.60;;;;;;;13.75;68.99;101028.59;105715;1257;69122;-61
2023/05/17 11:04:35;;;;;;;7.80;4.40;;;;;;;13.78;69.03;101026.52;105721;1257;73048;-62
2023/05/17 11:07:20;;;;;;;5.30;2.70;;;;;;;13.76;68.63;101030.13;105649;1257;83488;-62
2023/05/17 11:09:52;;;;;;;6.90;2.40;;;;;;;13.76;68.46;101030.30;105814;1251;72651;-62
2023/05/17 11:12:38;;;;;;;10.80;2.00;;;;;;;13.79;68.22;101035.96;105719;1257;69421;-62
2023/05/17 11:15:09;;;;;;;8.40;2.10;;;;;;;13.89;67.98;101028.34;105730;1256;69780;-62
2023/05/17 11:17:45;;;;;;;5.50;2.40;;;;;;;13.99;68.13;101028.13;105640;1256;74320;-62
2023/05/17 11:20:13;;;;;;;5.70;2.10;;;;;;;14.08;67.77;101033.73;105666;1256;82967;-62
2023/05/17 11:22:57;;;;;;;;;;;;;;;14.07;67.75;101032.72;105585;1254;72667;-61
2023/05/17 11:25:34;;;;;;;6.80;2.00;;;;;;;14.04;67.89;101031.45;105608;1254;69147;-62
2023/05/17 11:28:23;;;;;;;6.10;2.20;;;;;;;14.05;67.67;101033.00;105702;1255;69115;-62
2023/05/17 11:30:59;;;;;;;6.70;2.90;;;;;;;14.10;67.77;101031.02;105624;1251;74169;-62
2023/05/17 11:33:39;;;;;;;5.40;2.30;;;;;;;14.21;67.92;101031.23;105653;1257;83247;-62
2023/05/17 11:36:15;;;;;;;6.90;2.40;;;;;;;14.33;67.47;101030.40;105733;1251;73849;-62
2023/05/17 11:38:43;;;;;;;6.70;2.20;;;;;;;14.38;66.75;101027.91;105645;1253;69106;-62
2023/05/17 11:41:20;;;;;;;5.40;2.00;;;;;;;14.41;66.60;101029.34;105616;1257;69229;-61
2023/05/17 11:43:52;;;;;;;4.90;1.80;;;;;;;14.35;65.98;101029.42;105115;1262;74233;-61
2023/05/17 11:46:21;;;;;;;8.20;2.50;;;;;;;14.26;65.80;101033.50;105243;1260;83061;-62